Time;durP1;ratioP1;P1;durP2;ratioP2;P2;SDS_P1;SDS_P2;PMS_P1;PMS_P2;Temp;Humidity;BMP_temperature;BMP_pressure;BME280_temperature;BME280_humidity;BME280_pressure;Samples;Min_cycle;Max_cycle;Signal;HPM_P1;HPM_P2
2022/09/08 00:00:51;;;;;;;;;6.00;5.25;;;;;19.15;98.08;99019.94;4977107;28;45284;-57
2022/09/08 00:03:19;;;;;;;;;7.00;5.80;;;;;19.12;98.18;99022.81;4979722;28;47739;-57
2022/09/08 00:06:01;;;;;;;;;4.60;4.60;;;;;19.11;98.11;99007.75;4996413;28;45420;-58
2022/09/08 00:08:27;;;;;;;;;5.75;4.50;;;;;19.10;97.90;99010.56;4979402;28;45374;-58
2022/09/08 00:10:55;;;;;;;;;3.75;3.75;;;;;19.11;97.61;99006.91;5011523;28;45570;-57
2022/09/08 00:13:22;;;;;;;;;5.75;5.75;;;;;19.14;98.19;99007.53;4996558;28;45434;-57
2022/09/08 00:15:49;;;;;;;;;8.00;5.00;;;;;19.21;98.64;99007.06;4997094;28;45437;-57
2022/09/08 00:18:15;;;;;;;;;8.25;8.25;;;;;19.27;98.37;99009.28;4977204;28;45453;-58
2022/09/08 00:20:40;;;;;;;;;7.25;4.50;;;;;19.29;98.38;98999.28;4986305;28;45503;-57
2022/09/08 00:23:08;;;;;;;;;5.00;5.00;;;;;19.32;98.34;99002.59;4996578;28;46465;-58
2022/09/08 00:25:33;;;;;;;;;5.60;5.00;;;;;19.36;99.22;98989.84;4995419;28;45373;-58
2022/09/08 00:27:59;;;;;;;;;6.75;5.50;;;;;19.39;97.98;99001.16;4995053;28;45454;-57
2022/09/08 00:30:25;;;;;;;;;4.00;4.00;;;;;19.40;98.13;99004.69;4996315;28;45577;-57
2022/09/08 00:32:50;;;;;;;;;5.50;5.50;;;;;19.42;99.00;98990.22;4996691;28;45439;-56
2022/09/08 00:35:18;;;;;;;;;6.25;5.00;;;;;19.47;99.27;98984.50;4996003;28;45389;-56
2022/09/08 00:37:44;;;;;;;;;4.75;4.75;;;;;19.50;98.80;98989.63;4996691;28;45454;-56
2022/09/08 00:40:10;;;;;;;;;5.50;5.50;;;;;19.54;98.23;98988.44;4996173;28;45496;-55
2022/09/08 00:42:35;;;;;;;;;5.00;4.00;;;;;19.54;97.81;98984.91;4996515;28;45346;-56
2022/09/08 00:45:01;;;;;;;;;4.25;4.25;;;;;19.51;98.12;98978.81;4996143;28;45354;-56
2022/09/08 00:47:30;;;;;;;;;5.75;4.75;;;;;19.54;99.03;98969.72;4988900;28;45387;-55
2022/09/08 00:50:16;;;;;;;;;3.75;3.75;;;;;19.57;99.19;98976.66;4976082;28;45590;-54
2022/09/08 00:53:00;;;;;;;;;7.75;6.25;;;;;19.61;99.05;98981.59;4976541;28;46165;-55
2022/09/08 00:55:27;;;;;;;;;5.20;4.80;;;;;19.65;98.75;98976.88;4976193;28;45446;-55
2022/09/08 00:57:53;;;;;;;;;6.00;4.60;;;;;19.67;99.03;98964.22;4976796;28;45446;-57
2022/09/08 01:00:19;;;;;;;;;6.50;5.00;;;;;19.70;99.16;98966.66;4976406;28;45513;-55
2022/09/08 01:02:46;;;;;;;;;6.00;5.00;;;;;19.72;99.41;98976.28;4994404;28;46644;-56
2022/09/08 01:05:19;;;;;;;;;5.20;4.40;;;;;19.75;99.63;98977.84;4976682;28;45414;-55
2022/09/08 01:13:22;;;;;;;;;6.40;5.20;;;;;19.79;98.89;98940.00;4976038;28;45466;-56
2022/09/08 01:15:48;;;;;;;;;5.40;5.40;;;;;19.78;98.69;98938.31;4976016;28;45478;-57
2022/09/08 01:18:14;;;;;;;;;4.00;4.00;;;;;19.81;99.46;98937.22;4976232;28;45311;-55
2022/09/08 01:20:46;;;;;;;;;5.50;5.50;;;;;19.82;99.08;98936.25;4975641;28;45505;-56
2022/09/08 01:23:23;;;;;;;;;7.00;6.00;;;;;19.84;99.87;98929.81;4970057;28;45548;-54
2022/09/08 01:25:55;;;;;;;;;7.00;5.60;;;;;19.85;99.34;98928.81;4991725;28;45387;-55
2022/09/08 01:28:31;;;;;;;;;6.00;6.00;;;;;19.84;99.35;98928.94;4995437;28;45448;-54
2022/09/08 01:30:58;;;;;;;;;5.00;5.00;;;;;19.84;99.15;98919.09;4995225;28;45513;-53
2022/09/08 01:33:24;;;;;;;;;3.00;3.00;;;;;19.86;98.45;98918.97;4995370;28;45516;-54
2022/09/08 01:35:49;;;;;;;;;5.50;4.50;;;;;19.84;98.26;98913.75;4995421;28;45539;-55
2022/09/08 01:38:15;;;;;;;;;4.50;4.50;;;;;19.86;98.05;98913.63;4995518;28;45315;-55
2022/09/08 01:40:40;;;;;;;;;4.00;4.00;;;;;19.83;97.60;98920.06;4994712;28;45505;-56
2022/09/08 01:43:09;;;;;;;;;4.00;4.00;;;;;19.82;98.01;98913.03;4995398;28;45517;-56
2022/09/08 01:45:35;;;;;;;;;5.40;5.40;;;;;19.83;97.22;98917.41;4995165;28;45439;-53
2022/09/08 01:48:01;;;;;;;;;5.20;4.60;;;;;19.82;97.73;98918.38;4982985;28;45379;-53
2022/09/08 01:50:26;;;;;;;;;4.75;4.75;;;;;19.83;97.50;98913.88;4980351;28;45415;-55
2022/09/08 01:52:52;;;;;;;;;4.00;4.00;;;;;19.83;96.78;98909.38;4994930;28;45398;-55
2022/09/08 01:55:17;;;;;;;;;5.00;3.00;;;;;19.81;96.72;98922.00;4994227;28;45430;-55
2022/09/08 01:57:43;;;;;;;;;6.00;4.25;;;;;19.79;96.83;98923.09;4995648;28;45379;-56
2022/09/08 02:00:09;;;;;;;;;6.00;4.00;;;;;19.78;96.68;98927.59;4995304;28;45391;-55
2022/09/08 02:02:35;;;;;;;;;5.20;5.20;;;;;19.77;96.80;98919.72;4994939;28;45533;-55
2022/09/08 02:05:01;;;;;;;;;5.00;5.00;;;;;19.76;95.19;98915.34;4977783;28;45299;-54
2022/09/08 02:07:26;;;;;;;;;4.25;4.00;;;;;19.72;94.65;98919.25;4975606;28;45391;-55
2022/09/08 02:09:52;;;;;;;;;1.00;1.00;;;;;19.65;90.44;98926.06;4975536;28;45629;-55
2022/09/08 02:12:17;;;;;;;;;3.00;2.00;;;;;19.60;89.64;98929.13;4975316;28;45363;-57
2022/09/08 02:14:42;;;;;;;;;4.00;3.25;;;;;19.59;91.44;98931.91;4975391;28;45502;-57
2022/09/08 02:17:08;;;;;;;;;2.00;1.00;;;;;19.57;90.80;98918.66;4975328;28;45257;-54
2022/09/08 02:19:33;;;;;;;;;4.75;3.75;;;;;19.55;91.65;98919.75;4974743;28;45363;-55
2022/09/08 02:21:58;;;;;;;;;3.75;3.75;;;;;19.50;92.52;98920.97;4975063;28;46407;-55
2022/09/08 02:24:24;;;;;;;;;3.75;1.50;;;;;19.47;90.52;98913.16;4973943;28;45423;-56
2022/09/08 02:26:49;;;;;;;;;2.00;2.00;;;;;19.44;90.48;98918.72;4975235;28;45505;-56
2022/09/08 02:29:15;;;;;;;;;5.00;4.00;;;;;19.42;91.62;98915.34;4974848;28;45362;-56
2022/09/08 02:31:41;;;;;;;;;4.25;3.25;;;;;19.42;92.86;98914.50;4975292;28;45626;-56
2022/09/08 02:34:07;;;;;;;;;4.20;3.20;;;;;19.41;93.90;98913.66;4974374;28;45430;-56
2022/09/08 02:36:33;;;;;;;;;4.00;2.50;;;;;19.39;93.80;98906.72;4975235;28;45378;-56
2022/09/08 02:38:58;;;;;;;;;5.75;5.75;;;;;19.37;94.86;98914.00;4974549;28;45327;-56
2022/09/08 02:41:26;;;;;;;;;3.00;3.00;;;;;19.37;95.28;98922.03;4974714;28;45331;-57
2022/09/08 02:43:52;;;;;;;;;6.00;4.60;;;;;19.38;95.85;98923.72;4974831;28;45334;-56
2022/09/08 02:46:17;;;;;;;;;6.50;4.00;;;;;19.38;95.62;98926.41;4986729;28;45292;-57
2022/09/08 02:48:43;;;;;;;;;3.00;3.00;;;;;19.36;95.54;98926.53;4976006;28;45327;-56
2022/09/08 02:51:12;;;;;;;;;2.50;2.50;;;;;19.33;94.63;98932.13;4974639;28;45461;-56
2022/09/08 02:53:39;;;;;;;;;2.00;2.00;;;;;19.32;94.92;98937.56;4977999;28;45447;-56
2022/09/08 02:56:06;;;;;;;;;2.50;2.50;;;;;19.29;93.76;98933.31;4978428;28;45398;-56
2022/09/08 02:58:31;;;;;;;;;2.75;2.50;;;;;19.26;94.82;98933.59;4978279;28;45403;-56
2022/09/08 03:00:58;;;;;;;;;2.75;2.75;;;;;19.18;93.67;98933.31;4978110;28;45402;-56
2022/09/08 03:03:24;;;;;;;;;2.80;2.80;;;;;19.09;94.17;98929.56;4980452;28;45470;-57
2022/09/08 03:05:50;;;;;;;;;2.00;2.00;;;;;19.04;94.04;98934.41;4997606;28;45382;-56
2022/09/08 03:08:17;;;;;;;;;3.75;3.00;;;;;19.00;94.61;98932.94;4988940;28;45422;-56
2022/09/08 03:10:42;;;;;;;;;2.00;1.40;;;;;18.98;94.76;98936.69;4989297;28;45518;-55
2022/09/08 03:13:08;;;;;;;;;3.75;2.00;;;;;18.97;94.67;98933.16;4977889;28;45357;-54
2022/09/08 03:15:34;;;;;;;;;4.00;2.25;;;;;18.96;95.31;98941.28;4978145;28;45472;-56
2022/09/08 03:18:03;;;;;;;;;2.00;1.50;;;;;18.92;95.06;98945.19;4983353;28;45599;-53
2022/09/08 03:20:29;;;;;;;;;2.60;2.60;;;;;18.89;94.77;98943.59;4982569;28;45458;-56
2022/09/08 03:22:55;;;;;;;;;3.40;3.00;;;;;18.88;94.18;98941.03;4977934;28;45403;-56
2022/09/08 03:25:20;;;;;;;;;3.00;1.25;;;;;18.87;95.07;98942.88;4977938;28;45637;-57
2022/09/08 03:27:46;;;;;;;;;1.75;1.75;;;;;18.85;95.35;98946.63;4981460;28;45645;-57
2022/09/08 03:30:13;;;;;;;;;2.50;2.50;;;;;18.81;95.88;98946.84;4984607;28;45469;-54
2022/09/08 03:32:41;;;;;;;;;2.60;2.60;;;;;18.80;96.45;98950.50;4984113;28;45545;-58
2022/09/08 03:35:11;;;;;;;;;2.00;2.00;;;;;18.80;95.66;98953.16;4976045;28;45339;-54
2022/09/08 03:37:38;;;;;;;;;3.75;3.00;;;;;18.79;94.74;98959.47;4977172;28;45553;-54
2022/09/08 03:40:05;;;;;;;;;2.80;2.00;;;;;18.72;95.11;98966.25;4976421;28;45586;-55
2022/09/08 03:42:35;;;;;;;;;1.40;1.40;;;;;18.60;96.13;98966.34;4976683;28;45318;-55
2022/09/08 03:45:02;;;;;;;;;2.00;2.00;;;;;18.46;94.94;98968.19;4976207;28;45369;-56
2022/09/08 03:47:28;;;;;;;;;1.60;1.40;;;;;18.33;95.44;98967.38;4988631;28;45324;-53
2022/09/08 03:49:53;;;;;;;;;2.00;2.00;;;;;18.29;95.41;98973.06;4975839;28;45425;-57
2022/09/08 03:52:19;;;;;;;;;3.75;1.75;;;;;18.26;95.53;98978.66;4976875;28;45334;-56
2022/09/08 03:54:47;;;;;;;;;3.50;3.00;;;;;18.19;95.73;98983.56;4976635;28;45810;-54
2022/09/08 03:57:15;;;;;;;;;2.50;2.50;;;;;18.13;96.27;98984.88;4976619;28;45433;-56
2022/09/08 03:59:41;;;;;;;;;3.00;3.00;;;;;18.09;95.28;98977.22;4990221;28;45446;-56
2022/09/08 04:02:08;;;;;;;;;2.40;2.40;;;;;18.04;95.52;98977.56;4986519;28;45519;-56
2022/09/08 04:04:33;;;;;;;;;3.00;3.00;;;;;18.00;96.54;98973.38;4989056;28;45406;-56
2022/09/08 04:06:59;;;;;;;;;2.25;2.25;;;;;17.96;95.77;98979.06;4996119;28;45400;-56
2022/09/08 04:09:24;;;;;;;;;3.00;3.00;;;;;17.93;95.97;98977.44;4995567;28;46132;-56
2022/09/08 04:11:50;;;;;;;;;2.75;2.00;;;;;17.92;95.64;98982.94;4996078;28;45370;-56
2022/09/08 04:14:16;;;;;;;;;2.00;1.00;;;;;17.90;95.92;98982.19;4995919;28;45469;-56
2022/09/08 04:16:42;;;;;;;;;4.00;3.00;;;;;17.88;95.23;98984.97;4995985;28;45412;-56
2022/09/08 04:19:08;;;;;;;;;0.75;0.25;;;;;17.90;95.25;98975.03;4994911;28;45393;-55
2022/09/08 04:21:34;;;;;;;;;1.80;1.80;;;;;17.91;95.08;98973.22;4995623;28;45351;-56
2022/09/08 04:23:59;;;;;;;;;2.25;2.00;;;;;17.93;95.09;98973.97;4995460;28;45358;-56
2022/09/08 04:26:26;;;;;;;;;2.75;1.75;;;;;17.97;95.46;98970.09;4985452;28;45521;-56
2022/09/08 04:28:52;;;;;;;;;3.00;3.00;;;;;17.98;94.78;98972.66;4974372;28;47422;-55
2022/09/08 04:31:18;;;;;;;;;2.40;2.40;;;;;18.01;94.90;98980.44;4975778;28;45548;-56
2022/09/08 04:33:44;;;;;;;;;2.00;2.00;;;;;18.06;95.24;98978.28;4984443;28;45429;-56
2022/09/08 04:36:15;;;;;;;;;3.75;3.75;;;;;18.09;95.87;98986.06;4976525;28;45406;-56
2022/09/08 04:38:42;;;;;;;;;2.00;2.00;;;;;18.13;94.88;98984.88;4953666;28;1189272;-54
2022/09/08 04:41:10;;;;;;;;;4.00;2.80;;;;;18.14;94.43;98981.22;4996499;28;45357;-56
2022/09/08 04:43:36;;;;;;;;;2.00;2.00;;;;;18.15;93.69;98984.75;4996248;28;45529;-55
2022/09/08 04:46:10;;;;;;;;;2.00;2.00;;;;;18.16;93.63;98986.47;4996242;28;45495;-54
2022/09/08 04:48:37;;;;;;;;;2.75;2.75;;;;;18.15;93.72;98995.44;4993916;28;48644;-55
2022/09/08 04:51:03;;;;;;;;;3.00;2.00;;;;;18.14;94.24;98996.41;4994083;28;45435;-55
2022/09/08 04:53:31;;;;;;;;;4.00;3.00;;;;;18.18;94.23;99010.38;4991982;28;45446;-54
2022/09/08 04:55:57;;;;;;;;;1.75;1.75;;;;;18.17;94.17;99003.31;4975117;28;45514;-55
2022/09/08 04:58:22;;;;;;;;;4.00;4.00;;;;;18.18;94.87;99011.22;4975686;28;46601;-55
2022/09/08 05:00:48;;;;;;;;;3.00;3.00;;;;;18.21;95.49;99005.66;4990144;28;45413;-55
2022/09/08 05:03:14;;;;;;;;;3.00;3.00;;;;;18.24;95.60;99005.44;4991914;28;45418;-55
2022/09/08 05:05:40;;;;;;;;;4.00;4.00;;;;;18.26;96.34;99013.34;4975243;28;45526;-58
2022/09/08 05:08:06;;;;;;;;;7.00;5.00;;;;;18.29;95.70;99018.44;4979050;28;47135;-58
2022/09/08 05:10:32;;;;;;;;;3.25;2.50;;;;;18.31;95.27;99021.84;4984917;28;45347;-58
2022/09/08 05:12:58;;;;;;;;;5.25;4.25;;;;;18.31;95.35;99021.84;4975953;28;45475;-58
2022/09/08 05:15:25;;;;;;;;;4.50;3.50;;;;;18.33;95.80;99025.25;4973817;28;45516;-56
2022/09/08 05:17:50;;;;;;;;;3.00;3.00;;;;;18.35;96.00;99024.19;4984365;28;47313;-54
2022/09/08 05:20:16;;;;;;;;;6.75;5.50;;;;;18.39;95.91;99030.16;4983979;28;45397;-54
2022/09/08 05:22:41;;;;;;;;;3.00;3.00;;;;;18.42;96.14;99025.44;4984333;28;45513;-55
2022/09/08 05:25:07;;;;;;;;;8.50;5.75;;;;;18.46;97.07;99028.72;4983119;28;45425;-52
2022/09/08 05:27:33;;;;;;;;;7.00;7.00;;;;;18.48;97.21;99027.66;4981449;28;46533;-53
2022/09/08 05:29:58;;;;;;;;;6.75;6.75;;;;;18.55;97.39;99032.53;4988629;28;45425;-53
2022/09/08 05:32:24;;;;;;;;;8.00;7.00;;;;;18.60;97.45;99038.44;4975483;28;45445;-55
2022/09/08 05:34:49;;;;;;;;;7.50;7.50;;;;;18.65;96.40;99039.78;4984732;28;45449;-55
2022/09/08 05:37:15;;;;;;;;;7.00;6.75;;;;;18.67;96.00;99035.19;4994924;28;45474;-56
2022/09/08 05:39:40;;;;;;;;;6.25;4.50;;;;;18.71;95.69;99042.00;4994790;28;45487;-57
2022/09/08 05:42:06;;;;;;;;;7.00;7.00;;;;;18.75;96.25;99047.97;4994943;28;45548;-58
2022/09/08 05:44:31;;;;;;;;;9.75;8.50;;;;;18.79;96.22;99055.63;4994463;28;45437;-58
2022/09/08 05:46:57;;;;;;;;;9.50;8.00;;;;;18.84;95.60;99055.28;4989480;28;47460;-56
2022/09/08 05:49:22;;;;;;;;;9.50;7.75;;;;;18.90;95.75;99059.31;4974328;28;45419;-54
2022/09/08 05:51:52;;;;;;;;;8.50;5.75;;;;;18.94;95.15;99061.63;4985557;28;45444;-54
2022/09/08 05:54:18;;;;;;;;;3.75;3.75;;;;;18.98;94.70;99064.94;4974712;28;45439;-54
2022/09/08 05:56:43;;;;;;;;;7.60;6.40;;;;;19.03;94.79;99063.63;4974734;28;46274;-57
2022/09/08 05:59:09;;;;;;;;;7.50;7.00;;;;;19.09;95.17;99065.00;4991386;28;45264;-56
2022/09/08 06:01:35;;;;;;;;;7.25;7.25;;;;;19.16;95.53;99068.88;4994682;28;45584;-56
2022/09/08 06:04:02;;;;;;;;;7.00;7.00;;;;;19.23;94.88;99069.28;4990171;28;45534;-55
2022/09/08 06:06:28;;;;;;;;;8.00;6.00;;;;;19.29;94.42;99071.47;4991431;28;45267;-57
2022/09/08 06:08:59;;;;;;;;;7.00;6.00;;;;;19.34;94.54;99066.63;4983067;28;45297;-56
2022/09/08 06:11:25;;;;;;;;;5.00;5.00;;;;;19.42;94.27;99066.91;4980310;28;45666;-56
2022/09/08 06:13:51;;;;;;;;;5.75;5.75;;;;;19.50;93.16;99073.38;4975030;28;45481;-56
2022/09/08 06:16:17;;;;;;;;;6.40;5.00;;;;;19.56;92.90;99073.88;4974808;28;45275;-57
2022/09/08 06:18:44;;;;;;;;;7.00;7.00;;;;;19.62;92.83;99073.38;4983688;28;45263;-56
2022/09/08 06:21:14;;;;;;;;;8.40;6.40;;;;;19.71;92.18;99078.03;4994047;28;45494;-55
2022/09/08 06:23:40;;;;;;;;;6.00;5.00;;;;;19.75;92.14;99079.50;4994304;28;45586;-57
2022/09/08 06:26:40;;;;;;;;;10.25;10.25;;;;;19.82;92.20;99088.75;4993435;28;45497;-58
2022/09/08 06:29:18;;;;;;;;;8.80;7.80;;;;;19.86;91.26;99085.72;4994241;28;45446;-57
2022/09/08 06:31:51;;;;;;;;;7.00;7.00;;;;;19.89;91.44;99084.63;4993032;28;45536;-59
2022/09/08 06:34:46;;;;;;;;;5.00;4.60;;;;;19.99;91.39;99084.75;4992912;28;45458;-61
2022/09/08 06:37:31;;;;;;;;;7.20;6.40;;;;;20.03;91.12;99080.84;4992037;28;45404;-62
2022/09/08 06:40:23;;;;;;;;;6.60;6.60;;;;;20.05;90.24;99087.78;4992577;28;45788;-63
2022/09/08 06:43:15;;;;;;;;;8.00;6.75;;;;;20.08;90.98;99084.03;4988832;28;45457;-63
2022/09/08 06:45:44;;;;;;;;;10.50;8.00;;;;;20.10;90.08;99080.25;4993609;28;45560;-59
2022/09/08 06:48:26;;;;;;;;;7.00;6.20;;;;;20.10;89.61;99079.41;4980062;28;45473;-59
2022/09/08 06:51:04;;;;;;;;;6.60;6.40;;;;;20.05;88.71;99079.75;4973977;28;45398;-59
2022/09/08 06:53:38;;;;;;;;;10.20;7.00;;;;;20.02;88.73;99084.50;4972683;28;45257;-59
2022/09/08 06:56:23;;;;;;;;;4.00;4.00;;;;;19.99;89.03;99082.91;4974283;28;45448;-59
2022/09/08 06:58:53;;;;;;;;;6.80;6.40;;;;;20.01;89.15;99088.16;4974162;28;46462;-60
2022/09/08 07:01:24;;;;;;;;;5.80;5.20;;;;;20.02;88.44;99095.19;4974278;28;45495;-59
2022/09/08 07:04:03;;;;;;;;;6.00;6.00;;;;;20.02;88.08;99092.53;4981544;28;45372;-59
2022/09/08 07:06:35;;;;;;;;;9.25;8.00;;;;;19.99;87.91;99090.09;4994517;28;45335;-59
2022/09/08 07:09:15;;;;;;;;;3.20;3.20;;;;;19.99;87.38;99088.25;4994111;28;45487;-59
2022/09/08 07:12:15;;;;;;;;;5.00;5.00;;;;;20.04;87.88;99095.94;4974320;28;45208;-59
2022/09/08 07:14:43;;;;;;;;;11.60;9.40;;;;;20.08;88.57;99092.06;4925817;28;45677;-59
2022/09/08 07:17:18;;;;;;;;;6.50;6.50;;;;;20.13;88.40;99093.38;4994107;28;45405;-59
2022/09/08 07:19:53;;;;;;;;;14.00;14.00;;;;;20.17;87.75;99093.97;4992750;28;46351;-59
2022/09/08 07:22:42;;;;;;;;;10.00;8.00;;;;;20.28;86.83;99091.28;4987439;28;45370;-58
2022/09/08 07:25:17;;;;;;;;;8.00;8.00;;;;;20.35;86.81;99083.63;4986479;28;45593;-58
2022/09/08 07:27:46;;;;;;;;;7.75;7.25;;;;;20.39;86.16;99088.66;4992321;28;45485;-58
2022/09/08 07:30:16;;;;;;;;;11.20;11.20;;;;;20.43;85.60;99089.25;4993138;28;46621;-59
2022/09/08 07:32:46;;;;;;;;;11.00;11.00;;;;;20.43;86.15;99082.06;4993081;28;45316;-59
2022/09/08 07:35:23;;;;;;;;;9.60;8.60;;;;;20.41;85.44;99075.13;4992512;28;45410;-59
2022/09/08 07:37:51;;;;;;;;;8.00;8.00;;;;;20.43;85.67;99082.06;4993906;28;45402;-60
2022/09/08 07:40:18;;;;;;;;;5.40;5.40;;;;;20.45;84.38;99087.28;4996066;28;45445;-59
2022/09/08 07:42:50;;;;;;;;;6.40;6.20;;;;;20.47;84.75;99085.34;4994219;28;45414;-59
2022/09/08 07:45:16;;;;;;;;;6.60;5.00;;;;;20.49;84.39;99086.06;4987254;28;45478;-59
2022/09/08 07:48:04;;;;;;;;;7.20;6.40;;;;;20.54;84.18;99082.03;4986128;28;45391;-59
2022/09/08 07:50:53;;;;;;;;;4.60;4.60;;;;;20.61;84.05;99084.22;4975888;28;46717;-59
2022/09/08 07:53:44;;;;;;;;;6.00;5.80;;;;;20.69;83.83;99089.78;4992853;28;45255;-59
2022/09/08 07:56:30;;;;;;;;;7.60;6.20;;;;;20.74;83.21;99088.44;4996293;28;45462;-59
2022/09/08 07:59:32;;;;;;;;;5.75;5.25;;;;;20.77;82.66;99093.56;4996060;28;45402;-59
2022/09/08 08:02:19;;;;;;;;;100.50;80.50;;;;;20.86;82.71;99094.63;4988389;28;46424;-59
2022/09/08 08:05:10;;;;;;;;;12.40;8.40;;;;;20.98;81.90;99096.28;4987424;28;45374;-59
2022/09/08 08:07:57;;;;;;;;;10.00;6.00;;;;;21.07;81.56;99098.19;4977372;28;45524;-61
2022/09/08 08:10:27;;;;;;;;;6.20;6.20;;;;;21.10;81.16;99091.75;4996681;28;45319;-69
2022/09/08 08:13:24;;;;;;;;;7.40;7.40;;;;;21.12;81.13;99090.59;4995031;28;47386;-61
2022/09/08 08:16:04;;;;;;;;;5.00;5.00;;;;;21.15;80.22;99094.88;4974867;28;45471;-61
2022/09/08 08:18:54;;;;;;;;;5.00;5.00;;;;;21.14;79.48;99094.00;4976042;28;45472;-61
2022/09/08 08:21:34;;;;;;;;;6.00;4.80;;;;;21.15;79.63;99095.72;4975368;28;45506;-61
2022/09/08 08:24:06;;;;;;;;;5.20;5.00;;;;;21.17;79.64;99100.94;4986121;28;46344;-60
2022/09/08 08:26:41;;;;;;;;;4.40;4.40;;;;;21.20;80.53;99096.22;4996049;28;45366;-61
2022/09/08 08:29:48;;;;;;;;;7.00;6.80;;;;;21.26;79.99;99084.13;4995644;28;45354;-60
2022/09/08 08:32:23;;;;;;;;;5.50;5.50;;;;;21.35;79.55;99082.50;4994494;28;45506;-64
2022/09/08 08:34:53;;;;;;;;;5.80;5.00;;;;;21.38;78.24;99077.72;4993299;28;45664;-61
2022/09/08 08:37:24;;;;;;;;;5.40;4.00;;;;;21.40;77.85;99072.22;4993907;28;45406;-61
2022/09/08 08:39:53;;;;;;;;;4.40;3.60;;;;;21.39;77.64;99081.25;4993508;28;45490;-60
2022/09/08 08:42:37;;;;;;;;;5.50;5.00;;;;;21.38;77.73;99074.19;4993462;28;45433;-61
2022/09/08 08:45:18;;;;;;;;;8.00;7.80;;;;;21.44;78.15;99074.53;4980548;28;46106;-61
2022/09/08 08:48:21;;;;;;;;;5.80;5.40;;;;;21.53;77.50;99075.56;4983810;28;45364;-61
2022/09/08 08:50:46;;;;;;;;;6.00;5.40;;;;;21.58;77.06;99081.38;4974200;28;45399;-60
2022/09/08 08:53:40;;;;;;;;;4.25;4.25;;;;;21.64;76.14;99074.63;4978806;28;45314;-61
2022/09/08 08:56:09;;;;;;;;;5.40;5.40;;;;;21.65;76.43;99077.19;4995015;28;45310;-61
2022/09/08 08:58:52;;;;;;;;;5.20;5.00;;;;;21.68;76.22;99068.88;4995620;28;45320;-61
2022/09/08 09:01:36;;;;;;;;;5.40;4.40;;;;;21.70;76.13;99072.28;4995233;28;45351;-61
2022/09/08 09:04:38;;;;;;;;;5.00;5.00;;;;;21.75;75.08;99077.25;4985909;28;45406;-61
2022/09/08 09:07:39;;;;;;;;;4.60;4.60;;;;;21.76;74.66;99082.50;4974886;28;46355;-61
2022/09/08 09:10:41;;;;;;;;;5.00;4.00;;;;;21.76;73.98;99078.97;4975368;28;45419;-61
2022/09/08 09:13:25;;;;;;;;;7.00;5.60;;;;;21.81;74.41;99072.19;4975528;28;45426;-61
2022/09/08 09:16:28;;;;;;;;;6.00;6.00;;;;;21.88;73.96;99070.69;4974232;28;45597;-61
2022/09/08 09:19:21;;;;;;;;;7.80;5.40;;;;;21.95;73.00;99074.50;4975111;28;46292;-62
2022/09/08 09:21:46;;;;;;;;;4.20;4.20;;;;;21.97;72.23;99070.84;4975697;28;45443;-61
2022/09/08 09:24:23;;;;;;;;;5.50;5.50;;;;;21.94;72.76;99070.16;4975849;28;45307;-61
2022/09/08 09:26:53;;;;;;;;;6.00;4.40;;;;;21.97;72.82;99063.63;4975408;28;45359;-61
2022/09/08 09:29:25;;;;;;;;;4.80;4.80;;;;;22.03;72.03;99060.47;4975087;28;46732;-62
2022/09/08 09:32:08;;;;;;;;;3.60;3.60;;;;;22.06;70.61;99057.50;4975453;28;45421;-62
2022/09/08 09:35:24;;;;;;;;;4.40;4.40;;;;;22.01;69.75;99054.38;4975258;28;45441;-62
2022/09/08 09:37:52;;;;;;;;;3.00;3.00;;;;;22.00;70.00;99055.34;4914562;28;45276;-62
2022/09/08 09:40:50;;;;;;;;;5.00;4.60;;;;;22.04;69.58;99046.06;4915071;28;45925;-60
2022/09/08 09:43:16;;;;;;;;;5.00;4.20;;;;;22.05;69.64;99047.75;4964916;28;45487;-63
2022/09/08 09:46:00;;;;;;;;;3.00;3.00;;;;;22.10;69.96;99044.66;4993384;28;45474;-61
2022/09/08 09:48:49;;;;;;;;;5.00;4.60;;;;;22.15;69.80;99035.19;4986977;28;45505;-61
2022/09/08 09:51:45;;;;;;;;;4.20;4.20;;;;;22.18;67.15;99029.56;4984693;28;45556;-60
2022/09/08 09:54:36;;;;;;;;;4.00;4.00;;;;;22.18;67.48;99024.19;5007346;28;45481;-60
2022/09/08 09:57:54;;;;;;;;;4.20;3.60;;;;;22.22;68.05;99027.44;4979749;28;45524;-59
2022/09/08 10:00:25;;;;;;;;;3.00;3.00;;;;;22.19;67.61;99025.88;4948725;28;45398;-58
2022/09/08 10:03:24;;;;;;;;;4.20;3.40;;;;;22.19;67.22;99015.16;4992060;28;45404;-58
2022/09/08 10:06:30;;;;;;;;;4.40;4.40;;;;;22.25;65.30;99011.91;4978879;28;45422;-60
2022/09/08 10:09:14;;;;;;;;;3.40;3.00;;;;;22.28;67.50;99014.34;4972368;28;45411;-60
2022/09/08 10:12:13;;;;;;;;;4.00;4.00;;;;;22.28;63.99;99003.59;4988333;28;45506;-62
2022/09/08 10:15:03;;;;;;;;;3.80;3.60;;;;;22.29;64.15;98999.03;4994037;28;45611;-62
2022/09/08 10:17:47;;;;;;;;;2.80;2.80;;;;;22.30;64.87;98995.38;4993887;28;45360;-64
2022/09/08 10:20:43;;;;;;;;;4.00;4.00;;;;;22.31;64.43;98989.00;4992335;28;45394;-61
2022/09/08 10:23:30;;;;;;;;;3.00;3.00;;;;;22.34;65.26;98987.88;4974039;28;45413;-61
2022/09/08 10:26:29;;;;;;;;;3.80;3.20;;;;;22.39;64.95;98993.69;4980423;28;45442;-61
2022/09/08 10:29:34;;;;;;;;;4.20;3.80;;;;;22.45;64.54;98980.56;4993377;28;45424;-60
2022/09/08 10:32:27;;;;;;;;;5.00;5.00;;;;;22.54;64.47;98979.72;4993424;28;45390;-60
2022/09/08 10:35:27;;;;;;;;;5.00;2.80;;;;;22.66;63.95;98983.09;4989111;28;45517;-60
2022/09/08 10:38:14;;;;;;;;;4.40;4.20;;;;;22.75;62.26;98976.91;5007922;28;49011;-60
2022/09/08 10:40:49;;;;;;;;;5.00;3.80;;;;;22.79;62.69;98981.00;4993195;28;45300;-59
2022/09/08 10:43:33;;;;;;;;;3.20;3.00;;;;;22.84;61.85;98970.69;4991662;28;45363;-60
2022/09/08 10:46:16;;;;;;;;;3.00;3.00;;;;;22.91;61.91;98970.97;4983605;28;45393;-59
2022/09/08 10:49:00;;;;;;;;;4.00;4.00;;;;;22.94;62.25;98960.78;4991694;28;46136;-58
2022/09/08 10:51:38;;;;;;;;;4.00;4.00;;;;;23.02;62.14;98960.06;4993072;28;45548;-59
2022/09/08 10:54:25;;;;;;;;;3.00;3.00;;;;;23.15;61.78;98957.91;4993822;28;45509;-59
2022/09/08 10:56:58;;;;;;;;;6.00;5.00;;;;;23.27;61.31;98955.91;4993228;28;45354;-58
2022/09/08 11:00:08;;;;;;;;;5.00;5.00;;;;;23.33;60.17;98956.16;4993086;28;45582;-61
2022/09/08 11:02:35;;;;;;;;;3.00;2.60;;;;;23.37;59.86;98954.03;4939210;28;45533;-61
2022/09/08 11:05:37;;;;;;;;;4.00;3.80;;;;;23.41;59.89;98949.22;4945545;28;45514;-62
2022/09/08 11:08:56;;;;;;;;;5.00;4.00;;;;;23.48;60.21;98945.78;4962223;28;45636;-59
2022/09/08 11:12:01;;;;;;;;;2.60;2.20;;;;;23.60;60.95;98951.88;4912966;28;46621;-59
2022/09/08 11:14:42;;;;;;;;;7.60;6.60;;;;;23.67;58.94;98948.41;4965525;28;45339;-59
2022/09/08 11:17:21;;;;;;;;;3.80;3.80;;;;;23.77;59.28;98951.09;4988299;28;45416;-59
2022/09/08 11:20:13;;;;;;;;;3.40;3.20;;;;;23.83;59.15;98955.84;4995751;28;45382;-58
2022/09/08 11:22:41;;;;;;;;;6.20;3.20;;;;;23.91;58.99;98947.91;4982316;28;45582;-59
2022/09/08 11:25:26;;;;;;;;;3.60;1.80;;;;;24.00;58.06;98952.38;4995557;28;45438;-60
2022/09/08 11:27:55;;;;;;;;;5.80;3.80;;;;;24.13;57.31;98945.78;4996482;28;45457;-60
2022/09/08 11:30:34;;;;;;;;;3.00;3.00;;;;;24.15;57.13;98943.75;4996535;28;45456;-60
2022/09/08 11:33:36;;;;;;;;;3.80;2.80;;;;;24.12;56.11;98939.56;4995522;28;45605;-62
2022/09/08 11:36:20;;;;;;;;;1.80;1.80;;;;;24.13;55.75;98943.09;4995722;28;45402;-60
2022/09/08 11:39:12;;;;;;;;;4.00;3.00;;;;;24.13;56.93;98941.22;4996887;28;45504;-60
2022/09/08 11:42:41;;;;;;;;;3.00;3.00;;;;;24.17;56.43;98929.16;4977250;28;45502;-59
2022/09/08 11:45:29;;;;;;;;;2.40;2.40;;;;;24.18;54.51;98921.91;4950099;28;46813;-60
2022/09/08 11:48:03;;;;;;;;;3.00;3.00;;;;;24.17;54.85;98921.06;4955074;28;45463;-59
2022/09/08 11:50:51;;;;;;;;;3.80;3.00;;;;;24.21;54.63;98918.91;4988446;28;45234;-60
2022/09/08 11:53:28;;;;;;;;;3.20;3.20;;;;;24.25;54.38;98923.91;5011253;28;45413;-59
2022/09/08 11:56:08;;;;;;;;;4.00;3.00;;;;;24.29;53.02;98922.59;4996626;28;45609;-59
2022/09/08 11:58:50;;;;;;;;;2.80;2.80;;;;;24.33;54.36;98929.34;5011616;28;45358;-60
2022/09/08 12:01:34;;;;;;;;;2.80;2.80;;;;;24.36;53.12;98914.72;4996197;28;45334;-60
2022/09/08 12:04:08;;;;;;;;;2.80;2.80;;;;;24.41;53.01;98915.13;4987249;28;45737;-61
2022/09/08 12:06:48;;;;;;;;;1.60;1.60;;;;;24.48;52.90;98907.25;4976536;28;45556;-60
2022/09/08 12:09:36;;;;;;;;;2.60;2.60;;;;;24.54;52.57;98915.56;4976750;28;45358;-60
2022/09/08 12:12:12;;;;;;;;;1.00;1.00;;;;;24.60;54.21;98912.28;4976654;28;45544;-60